createdAt,value
2023-04-12T00:01:44.702Z,17.52
2023-04-12T00:11:46.165Z,17.49
2023-04-12T00:21:47.567Z,17.47
2023-04-12T00:31:49.217Z,17.45
2023-04-12T00:41:50.734Z,17.40
2023-04-12T00:51:53.041Z,17.38
2023-04-12T01:01:55.723Z,17.34
2023-04-12T01:12:09.103Z,17.30
2023-04-12T01:22:21.469Z,17.26
2023-04-12T01:32:22.993Z,17.24
2023-04-12T01:42:24.416Z,17.23
2023-04-12T01:52:26.131Z,17.18
2023-04-12T02:02:27.666Z,17.13
2023-04-12T02:12:29.135Z,17.04
2023-04-12T02:22:30.938Z,17.02
2023-04-12T02:32:32.782Z,16.98
2023-04-12T02:42:34.345Z,16.91
2023-04-12T02:52:35.806Z,16.88
2023-04-12T03:02:37.503Z,16.82
2023-04-12T03:12:39.311Z,16.79
2023-04-12T03:22:40.933Z,16.76
2023-04-12T03:32:42.448Z,16.73
2023-04-12T03:42:43.960Z,16.67
2023-04-12T03:52:45.627Z,16.61
2023-04-12T04:02:47.424Z,16.59
2023-04-12T04:12:48.972Z,16.54
2023-04-12T04:22:53.106Z,16.69
2023-04-12T04:32:54.611Z,16.95
2023-04-12T04:42:56.782Z,17.27
2023-04-12T04:52:58.213Z,17.53
2023-04-12T05:02:59.856Z,17.69
2023-04-12T05:13:01.459Z,17.75
2023-04-12T05:23:03.065Z,17.79
2023-04-12T05:33:04.540Z,17.80
2023-04-12T05:43:06.183Z,17.79
2023-04-12T05:53:08.093Z,17.75
2023-04-12T06:03:10.645Z,17.77
2023-04-12T06:13:12.149Z,17.77
2023-04-12T06:23:13.590Z,17.78
2023-04-12T06:33:15.781Z,17.83
2023-04-12T06:43:19.088Z,17.85
2023-04-12T06:53:20.630Z,17.88
2023-04-12T07:03:24.076Z,17.91
2023-04-12T07:13:25.760Z,18.02
2023-04-12T07:23:27.555Z,18.03
2023-04-12T07:33:29.106Z,18.09
2023-04-12T07:43:30.586Z,18.12
2023-04-12T07:53:32.227Z,18.20
2023-04-12T08:03:33.868Z,18.23
2023-04-12T08:13:35.885Z,18.24
2023-04-12T08:23:37.448Z,18.28
2023-04-12T08:33:38.835Z,18.31
2023-04-12T08:43:40.368Z,18.41
2023-04-12T08:53:41.937Z,18.49
2023-04-12T09:03:43.904Z,18.49
2023-04-12T09:13:45.639Z,18.63
2023-04-12T09:24:11.647Z,18.64
2023-04-12T09:34:14.926Z,18.60
2023-04-12T09:44:29.623Z,18.65
2023-04-12T09:54:31.290Z,18.72
2023-04-12T10:04:33.649Z,18.72
2023-04-12T10:14:35.569Z,18.77
2023-04-12T10:24:38.239Z,19.16
2023-04-12T10:34:42.108Z,19.40
2023-04-12T10:44:43.637Z,19.43
2023-04-12T10:54:45.250Z,19.30
2023-04-12T11:05:05.724Z,19.30
2023-04-12T11:15:07.851Z,19.25
2023-04-12T11:25:09.572Z,19.28
2023-04-12T11:35:11.129Z,19.32
2023-04-12T11:45:17.794Z,19.39
2023-04-12T11:55:19.613Z,19.44
2023-04-12T12:05:21.832Z,19.47
2023-04-12T12:15:23.487Z,19.59
2023-04-12T12:25:24.912Z,19.58
2023-04-12T12:35:27.288Z,19.55
2023-04-12T12:45:29.506Z,19.62
2023-04-12T12:55:31.236Z,19.63
2023-04-12T13:05:32.892Z,19.53
2023-04-12T13:15:34.455Z,19.49
2023-04-12T13:25:35.889Z,19.51
2023-04-12T13:35:37.305Z,19.45
2023-04-12T13:45:39.071Z,19.41
2023-04-12T13:55:40.844Z,19.30
2023-04-12T14:05:42.256Z,19.27
2023-04-12T14:15:43.801Z,19.25
2023-04-12T14:25:45.638Z,19.24
2023-04-12T14:35:47.151Z,19.18
2023-04-12T14:45:48.550Z,19.14
2023-04-12T14:55:50.205Z,19.14
2023-04-12T15:05:51.750Z,19.06
2023-04-12T15:15:54.573Z,18.97
2023-04-12T15:26:01.168Z,18.86
2023-04-12T15:36:02.881Z,18.79
2023-04-12T15:46:04.864Z,18.69
2023-04-12T15:56:06.809Z,18.67
2023-04-12T16:06:08.393Z,18.68
2023-04-12T16:16:12.774Z,18.56
2023-04-12T16:26:16.195Z,18.48
2023-04-12T16:36:17.890Z,18.39
2023-04-12T16:46:20.809Z,18.37
2023-04-12T16:56:24.685Z,18.31
2023-04-12T17:06:28.031Z,18.25
2023-04-12T17:16:29.461Z,18.20
2023-04-12T17:26:30.935Z,18.16
2023-04-12T17:36:32.390Z,18.10
2023-04-12T17:46:34.933Z,18.04
2023-04-12T17:56:36.493Z,18.01
2023-04-12T18:06:39.309Z,17.92
2023-04-12T18:16:40.984Z,17.88
2023-04-12T18:26:43.241Z,17.80
2023-04-12T18:36:45.084Z,17.76
2023-04-12T18:46:46.717Z,17.69
2023-04-12T18:56:48.219Z,17.61
2023-04-12T19:06:49.693Z,17.53
2023-04-12T19:16:51.519Z,17.51
2023-04-12T19:26:52.942Z,17.46
2023-04-12T19:36:54.353Z,17.38
2023-04-12T19:46:55.966Z,17.34
2023-04-12T19:56:57.514Z,17.29
2023-04-12T20:07:00.381Z,17.24
2023-04-12T20:17:02.640Z,17.22
2023-04-12T20:27:04.189Z,17.18
2023-04-12T20:37:05.659Z,17.09
2023-04-12T20:47:07.243Z,17.06
2023-04-12T20:57:09.396Z,17.01
2023-04-12T21:07:11.401Z,16.94
2023-04-12T21:17:13.051Z,16.91
2023-04-12T21:27:14.701Z,16.91
2023-04-12T21:37:16.227Z,16.92
2023-04-12T21:47:19.464Z,16.89
2023-04-12T21:57:21.303Z,16.84
2023-04-12T22:07:22.728Z,16.83
2023-04-12T22:17:24.675Z,16.79
2023-04-12T22:27:26.521Z,16.77
2023-04-12T22:37:28.440Z,16.72
2023-04-12T22:47:30.331Z,16.66
2023-04-12T22:57:32.094Z,16.61
2023-04-12T23:07:33.752Z,16.57
2023-04-12T23:17:36.749Z,16.49
2023-04-12T23:27:39.251Z,16.43
2023-04-12T23:37:41.661Z,16.42
2023-04-12T23:47:43.398Z,16.37
2023-04-12T23:57:45.021Z,16.32
